Time;durP1;ratioP1;P1;durP2;ratioP2;P2;SDS_P1;SDS_P2;PMS_P1;PMS_P2;Temp;Humidity;BMP_temperature;BMP_pressure;BME280_temperature;BME280_humidity;BME280_pressure;Samples;Min_cycle;Max_cycle;Signal;HPM_P1;HPM_P2
2021/12/11 00:01:42;;;;;;;;;49.50;48.00;;;;;;;;5249854;28;10963;-66
2021/12/11 00:04:15;;;;;;;;;108.00;86.25;;;;;;;;5267723;28;10392;-66
2021/12/11 00:06:47;;;;;;;;;64.25;55.00;;;;;;;;5249389;28;12122;-65
2021/12/11 00:09:27;;;;;;;;;60.25;49.75;;;;;;;;5250399;28;11414;-65
2021/12/11 00:12:26;;;;;;;;;29.50;25.75;;;;;;;;5249837;28;10459;-65
2021/12/11 00:15:05;;;;;;;;;50.50;45.00;;;;;;;;5268310;28;10079;-66
2021/12/11 00:17:36;;;;;;;;;84.00;66.25;;;;;;;;5268816;28;9937;-65
2021/12/11 00:20:13;;;;;;;;;26.33;21.33;;;;;;;;5267634;28;11229;-66
2021/12/11 00:22:46;;;;;;;;;11.75;11.75;;;;;;;;5249943;28;9085;-66
2021/12/11 00:25:17;;;;;;;;;1.50;1.50;;;;;;;;5268675;28;8832;-66
2021/12/11 00:27:50;;;;;;;;;27.75;27.25;;;;;;;;5267807;28;8895;-66
2021/12/11 00:30:26;;;;;;;;;24.00;24.00;;;;;;;;5249722;28;9799;-66
2021/12/11 00:33:01;;;;;;;;;13.00;13.00;;;;;;;;5250306;28;9576;-65
2021/12/11 00:35:34;;;;;;;;;18.67;17.67;;;;;;;;5267636;28;9011;-66
2021/12/11 00:38:25;;;;;;;;;68.50;55.00;;;;;;;;5253025;28;9182;-66
2021/12/11 00:40:56;;;;;;;;;69.25;55.25;;;;;;;;5232478;28;11415;-65
2021/12/11 00:43:34;;;;;;;;;65.00;54.50;;;;;;;;5267229;28;11499;-66
2021/12/11 00:46:06;;;;;;;;;16.00;16.00;;;;;;;;5249835;28;10939;-66
2021/12/11 00:48:38;;;;;;;;;2.50;2.50;;;;;;;;5232802;28;9421;-66
2021/12/11 00:51:12;;;;;;;;;24.67;21.33;;;;;;;;5249760;28;8804;-66
2021/12/11 00:53:48;;;;;;;;;79.75;62.00;;;;;;;;5249489;28;9355;-66
2021/12/11 00:56:24;;;;;;;;;30.67;30.33;;;;;;;;5267638;28;11236;-66
2021/12/11 00:58:58;;;;;;;;;11.00;11.00;;;;;;;;5233116;28;9345;-67
2021/12/11 01:01:35;;;;;;;;;13.67;13.67;;;;;;;;5267318;28;8796;-66
2021/12/11 01:04:10;;;;;;;;;8.50;8.50;;;;;;;;5267508;28;9666;-66
2021/12/11 01:06:45;;;;;;;;;20.33;19.00;;;;;;;;5249926;28;8865;-68
2021/12/11 01:09:21;;;;;;;;;42.67;37.00;;;;;;;;5249715;28;8929;-66
2021/12/11 01:11:52;;;;;;;;;19.67;19.67;;;;;;;;5266900;28;9619;-66
2021/12/11 01:14:36;;;;;;;;;74.00;60.75;;;;;;;;5216047;28;9497;-65
2021/12/11 01:17:08;;;;;;;;;37.25;31.25;;;;;;;;5252022;28;11021;-66
2021/12/11 01:19:41;;;;;;;;;14.00;13.00;;;;;;;;5253401;28;10118;-64
2021/12/11 01:25:22;;;;;;;;;31.00;26.00;;;;;;;;5146244;28;9323;-64
2021/12/11 01:28:14;;;;;;;;;19.67;19.67;;;;;;;;5268396;28;9185;-64
2021/12/11 01:30:45;;;;;;;;;53.67;44.33;;;;;;;;5236867;28;9328;-64
2021/12/11 01:33:16;;;;;;;;;49.67;45.00;;;;;;;;5271115;28;9699;-66
2021/12/11 01:35:47;;;;;;;;;24.33;23.33;;;;;;;;5271783;28;9543;-65
2021/12/11 01:38:24;;;;;;;;;14.50;14.00;;;;;;;;5252961;28;9032;-64
2021/12/11 01:41:00;;;;;;;;;11.33;10.67;;;;;;;;5271182;28;8800;-65
2021/12/11 01:43:33;;;;;;;;;6.67;6.00;;;;;;;;5253151;28;8914;-65
2021/12/11 01:50:40;;;;;;;;;14.50;12.50;;;;;;;;5270857;28;8799;-65
2021/12/11 01:53:13;;;;;;;;;19.33;13.67;;;;;;;;5236342;28;8744;-64
2021/12/11 01:55:46;;;;;;;;;37.67;36.00;;;;;;;;5253044;28;8852;-65
2021/12/11 01:58:22;;;;;;;;;33.33;27.33;;;;;;;;5270630;28;9333;-64
2021/12/11 02:00:56;;;;;;;;;12.00;8.33;;;;;;;;5252873;28;9139;-64
2021/12/11 02:03:30;;;;;;;;;18.67;17.33;;;;;;;;5270224;28;10133;-64
2021/12/11 02:06:02;;;;;;;;;3.00;3.00;;;;;;;;5236411;28;9263;-65
2021/12/11 02:08:35;;;;;;;;;21.33;19.67;;;;;;;;5235746;28;8760;-65
2021/12/11 02:11:06;;;;;;;;;51.50;43.75;;;;;;;;5252793;28;9597;-64
2021/12/11 02:13:45;;;;;;;;;23.33;22.33;;;;;;;;5252142;28;10216;-64
2021/12/11 02:16:29;;;;;;;;;17.67;17.67;;;;;;;;5252967;28;9074;-65
2021/12/11 02:19:06;;;;;;;;;50.00;45.25;;;;;;;;5236309;28;9558;-64
2021/12/11 02:22:05;;;;;;;;;24.00;24.00;;;;;;;;5271185;28;10070;-63
2021/12/11 02:24:39;;;;;;;;;63.75;54.75;;;;;;;;5252457;28;10394;-64
2021/12/11 02:27:17;;;;;;;;;62.00;50.25;;;;;;;;5269771;28;11415;-64
2021/12/11 02:30:04;;;;;;;;;65.00;52.25;;;;;;;;5270279;28;10441;-66
2021/12/11 02:32:39;;;;;;;;;82.50;66.00;;;;;;;;5270540;28;11410;-66
2021/12/11 02:35:16;;;;;;;;;84.50;65.50;;;;;;;;5270264;28;11424;-66
2021/12/11 02:37:49;;;;;;;;;71.00;54.00;;;;;;;;5269236;28;11452;-65
2021/12/11 02:40:27;;;;;;;;;11.33;11.33;;;;;;;;5252262;28;10356;-65
2021/12/11 02:43:01;;;;;;;;;21.00;19.00;;;;;;;;5269994;28;8849;-66
2021/12/11 02:45:37;;;;;;;;;7.50;7.50;;;;;;;;5270068;28;9057;-65
2021/12/11 02:48:29;;;;;;;;;13.00;12.00;;;;;;;;5254758;28;8780;-65
2021/12/11 02:51:23;;;;;;;;;11.50;11.50;;;;;;;;5269806;28;9128;-65
2021/12/11 02:53:58;;;;;;;;;6.00;6.00;;;;;;;;5251792;28;8780;-64
2021/12/11 02:56:31;;;;;;;;;6.67;6.67;;;;;;;;5252143;28;9067;-64
2021/12/11 02:59:06;;;;;;;;;12.67;12.67;;;;;;;;5252250;28;9024;-64
2021/12/11 03:01:49;;;;;;;;;5.33;5.33;;;;;;;;5234935;28;9979;-64
2021/12/11 03:04:28;;;;;;;;;12.00;10.00;;;;;;;;5269562;28;8922;-64
2021/12/11 03:07:17;;;;;;;;;16.67;15.00;;;;;;;;5269305;28;9132;-64
2021/12/11 03:14:14;;;;;;;;;24.67;23.33;;;;;;;;5269724;28;9838;-64
2021/12/11 03:16:48;;;;;;;;;15.67;15.67;;;;;;;;5251618;28;9498;-64
2021/12/11 03:19:41;;;;;;;;;18.00;16.67;;;;;;;;5254556;28;9345;-64
2021/12/11 03:22:14;;;;;;;;;15.00;15.00;;;;;;;;5251322;28;9700;-64
2021/12/11 03:25:07;;;;;;;;;29.50;27.25;;;;;;;;5237341;28;9861;-64
2021/12/11 03:27:39;;;;;;;;;22.25;19.25;;;;;;;;5234641;28;9936;-64
2021/12/11 03:30:30;;;;;;;;;9.33;9.33;;;;;;;;5269249;28;11471;-66
2021/12/11 03:33:19;;;;;;;;;13.00;12.33;;;;;;;;5269439;28;9366;-67
2021/12/11 03:35:50;;;;;;;;;27.33;26.33;;;;;;;;5251564;28;9533;-67
2021/12/11 03:38:22;;;;;;;;;33.33;33.33;;;;;;;;5250449;28;11475;-67
2021/12/11 03:40:54;;;;;;;;;26.00;25.25;;;;;;;;5250125;28;8769;-66
2021/12/11 03:43:27;;;;;;;;;51.00;47.75;;;;;;;;5234867;28;9942;-67
2021/12/11 03:46:01;;;;;;;;;65.00;55.50;;;;;;;;5250369;28;10842;-65
2021/12/11 03:48:34;;;;;;;;;36.00;33.25;;;;;;;;5233965;28;11367;-66
2021/12/11 03:51:07;;;;;;;;;67.00;56.50;;;;;;;;5250488;28;11057;-67
2021/12/11 03:53:38;;;;;;;;;17.33;16.00;;;;;;;;5250283;28;10964;-67
2021/12/11 03:56:12;;;;;;;;;18.00;18.00;;;;;;;;5268171;28;9057;-65
2021/12/11 03:58:49;;;;;;;;;41.75;39.25;;;;;;;;5268894;28;9171;-64
2021/12/11 04:01:22;;;;;;;;;37.00;37.00;;;;;;;;5217207;28;10102;-64
2021/12/11 04:03:58;;;;;;;;;27.67;27.33;;;;;;;;5233770;28;9941;-65
2021/12/11 04:06:29;;;;;;;;;32.00;32.00;;;;;;;;5250074;28;9645;-65
2021/12/11 04:09:02;;;;;;;;;33.50;32.25;;;;;;;;5250115;28;9675;-65
2021/12/11 04:11:34;;;;;;;;;10.67;10.67;;;;;;;;5250241;28;10284;-65
2021/12/11 04:14:08;;;;;;;;;18.00;16.00;;;;;;;;5250079;28;9490;-66
2021/12/11 04:16:40;;;;;;;;;13.67;13.67;;;;;;;;5267997;28;9188;-66
2021/12/11 04:19:30;;;;;;;;;48.50;46.50;;;;;;;;5268246;28;9235;-66
2021/12/11 04:22:01;;;;;;;;;23.50;21.75;;;;;;;;5268503;28;10505;-66
2021/12/11 04:24:34;;;;;;;;;36.75;35.75;;;;;;;;5249730;28;9987;-66
2021/12/11 04:27:07;;;;;;;;;29.00;26.75;;;;;;;;5267713;28;10058;-65
2021/12/11 04:29:40;;;;;;;;;30.00;26.75;;;;;;;;5249528;28;10674;-65
2021/12/11 04:32:11;;;;;;;;;30.75;29.00;;;;;;;;5249531;28;10374;-65
2021/12/11 04:34:42;;;;;;;;;51.50;45.25;;;;;;;;5249628;28;10579;-66
2021/12/11 04:37:24;;;;;;;;;46.00;43.50;;;;;;;;5250038;28;11145;-65
2021/12/11 04:40:01;;;;;;;;;33.25;31.50;;;;;;;;5250186;28;10203;-66
2021/12/11 04:45:29;;;;;;;;;47.75;44.50;;;;;;;;5267761;28;10648;-66
2021/12/11 04:48:13;;;;;;;;;58.25;49.75;;;;;;;;5250350;28;10766;-65
2021/12/11 04:50:58;;;;;;;;;51.75;41.50;;;;;;;;5232506;28;10890;-66
2021/12/11 04:56:46;;;;;;;;;50.75;45.00;;;;;;;;5267617;28;10365;-66
2021/12/11 04:59:36;;;;;;;;;107.25;73.75;;;;;;;;5249498;28;10283;-65
2021/12/11 05:02:39;;;;;;;;;60.25;50.00;;;;;;;;5232605;28;11482;-65
2021/12/11 05:07:55;;;;;;;;;54.50;49.00;;;;;;;;5248883;28;11002;-65
2021/12/11 05:10:48;;;;;;;;;56.25;50.00;;;;;;;;5267516;28;11121;-64
2021/12/11 05:13:20;;;;;;;;;61.50;50.25;;;;;;;;5267123;28;10913;-64
2021/12/11 05:15:52;;;;;;;;;53.50;48.00;;;;;;;;5267517;28;10826;-65
2021/12/11 05:18:25;;;;;;;;;67.00;55.00;;;;;;;;5267171;28;11388;-66
2021/12/11 05:20:59;;;;;;;;;57.25;49.25;;;;;;;;5249200;28;11387;-65
2021/12/11 05:23:30;;;;;;;;;61.00;50.50;;;;;;;;5249100;28;10744;-65
2021/12/11 05:26:02;;;;;;;;;72.75;56.00;;;;;;;;5267221;28;11019;-64
2021/12/11 05:28:34;;;;;;;;;66.00;54.75;;;;;;;;5267327;28;9479;-66
2021/12/11 05:31:06;;;;;;;;;77.50;60.50;;;;;;;;5232300;28;11439;-67
2021/12/11 05:33:38;;;;;;;;;69.25;57.00;;;;;;;;5267160;28;11231;-65
2021/12/11 05:36:11;;;;;;;;;68.00;53.25;;;;;;;;5248871;28;11815;-64
2021/12/11 05:38:47;;;;;;;;;65.50;56.50;;;;;;;;5249288;28;10930;-65
2021/12/11 05:41:20;;;;;;;;;39.00;33.25;;;;;;;;5266918;28;10813;-67
2021/12/11 05:43:52;;;;;;;;;59.75;52.00;;;;;;;;5232278;28;10728;-68
2021/12/11 05:46:23;;;;;;;;;56.50;49.00;;;;;;;;5267201;28;11502;-67
2021/12/11 05:48:55;;;;;;;;;51.75;47.50;;;;;;;;5249264;28;10251;-68
2021/12/11 05:51:26;;;;;;;;;36.00;35.50;;;;;;;;5250005;28;10263;-68
2021/12/11 05:53:59;;;;;;;;;22.67;21.67;;;;;;;;5268170;28;9904;-68
2021/12/11 05:56:35;;;;;;;;;25.67;25.67;;;;;;;;5232157;28;8821;-66
2021/12/11 05:59:08;;;;;;;;;29.00;27.67;;;;;;;;5249054;28;9463;-67
2021/12/11 06:01:48;;;;;;;;;29.33;28.00;;;;;;;;5266574;28;9336;-66
2021/12/11 06:04:21;;;;;;;;;35.33;31.67;;;;;;;;5269546;28;9381;-69
2021/12/11 06:06:53;;;;;;;;;30.00;25.00;;;;;;;;5270796;28;9495;-66
2021/12/11 06:18:19;;;;;;;;;93.50;72.50;;;;;;;;5270146;28;10781;-67
2021/12/11 06:20:53;;;;;;;;;76.75;65.00;;;;;;;;5252228;28;11526;-67
2021/12/11 06:23:24;;;;;;;;;60.00;49.25;;;;;;;;5252296;28;12165;-66
2021/12/11 06:25:56;;;;;;;;;69.75;57.00;;;;;;;;5251761;28;11446;-66
2021/12/11 06:28:27;;;;;;;;;68.00;53.50;;;;;;;;5270461;28;10663;-66
2021/12/11 06:31:19;;;;;;;;;49.25;43.00;;;;;;;;5225197;28;10397;-68
2021/12/11 06:33:52;;;;;;;;;60.50;52.50;;;;;;;;5235466;28;10427;-68
2021/12/11 06:36:42;;;;;;;;;44.75;40.25;;;;;;;;5251543;28;9974;-68
2021/12/11 06:39:16;;;;;;;;;61.25;50.25;;;;;;;;5269770;28;9875;-68
2021/12/11 06:41:50;;;;;;;;;51.00;45.67;;;;;;;;5251589;28;10627;-68
2021/12/11 06:48:45;;;;;;;;;66.00;53.00;;;;;;;;5269855;28;10142;-68
2021/12/11 06:51:16;;;;;;;;;72.75;58.25;;;;;;;;5270391;28;10409;-69
2021/12/11 06:53:49;;;;;;;;;80.25;66.00;;;;;;;;5252428;28;10533;-65
2021/12/11 06:56:21;;;;;;;;;72.00;59.25;;;;;;;;5270309;28;11097;-67
2021/12/11 06:58:53;;;;;;;;;50.00;45.00;;;;;;;;5234788;28;11247;-69
2021/12/11 07:01:25;;;;;;;;;50.75;43.25;;;;;;;;5235077;28;10423;-67
2021/12/11 07:07:43;;;;;;;;;71.75;52.75;;;;;;;;5230433;28;10011;-69
2021/12/11 07:14:37;;;;;;;;;85.50;66.25;;;;;;;;5247561;28;11442;-68
2021/12/11 07:21:31;;;;;;;;;63.25;52.25;;;;;;;;5247961;28;10692;-69
2021/12/11 07:24:05;;;;;;;;;83.50;68.50;;;;;;;;5213812;28;10461;-69
2021/12/11 07:31:00;;;;;;;;;66.75;52.50;;;;;;;;5260033;28;11558;-70
2021/12/11 07:33:31;;;;;;;;;76.25;60.50;;;;;;;;5268894;28;10890;-68
2021/12/11 07:36:02;;;;;;;;;31.25;28.25;;;;;;;;5217630;28;10346;-69
2021/12/11 07:38:33;;;;;;;;;58.00;49.75;;;;;;;;5250371;28;10630;-70
2021/12/11 07:45:28;;;;;;;;;21.50;19.75;;;;;;;;5268624;28;9395;-69
2021/12/11 07:48:01;;;;;;;;;3.50;3.50;;;;;;;;5234806;28;8784;-69
2021/12/11 07:50:32;;;;;;;;;6.25;6.25;;;;;;;;5268674;28;8807;-69
2021/12/11 07:53:03;;;;;;;;;12.00;12.00;;;;;;;;5268574;28;8787;-68
2021/12/11 07:55:35;;;;;;;;;11.75;11.75;;;;;;;;5268193;28;9431;-68
2021/12/11 07:58:06;;;;;;;;;21.67;21.67;;;;;;;;5249997;28;8780;-69
2021/12/11 08:00:56;;;;;;;;;20.00;18.50;;;;;;;;5268999;28;8883;-70
2021/12/11 08:03:27;;;;;;;;;15.67;14.67;;;;;;;;5250201;28;8776;-69
2021/12/11 08:06:17;;;;;;;;;28.67;28.33;;;;;;;;5250182;28;8785;-68
2021/12/11 08:08:48;;;;;;;;;31.67;31.67;;;;;;;;5268906;28;9274;-68
2021/12/11 08:11:19;;;;;;;;;28.33;27.33;;;;;;;;5250180;28;12116;-70
2021/12/11 08:14:08;;;;;;;;;24.00;23.33;;;;;;;;5235874;28;9405;-69
2021/12/11 08:16:48;;;;;;;;;16.33;16.33;;;;;;;;5250373;28;9171;-69
2021/12/11 08:19:21;;;;;;;;;17.00;17.00;;;;;;;;5233385;28;9595;-69
2021/12/11 08:21:55;;;;;;;;;7.67;4.00;;;;;;;;5233613;28;8833;-69
2021/12/11 08:24:28;;;;;;;;;22.00;21.00;;;;;;;;5268511;28;9307;-68
2021/12/11 08:27:01;;;;;;;;;29.00;25.33;;;;;;;;5232597;28;9585;-69
2021/12/11 08:29:32;;;;;;;;;31.33;27.67;;;;;;;;5232988;28;9313;-69
2021/12/11 08:32:04;;;;;;;;;43.00;37.00;;;;;;;;5233430;28;9637;-68
2021/12/11 08:34:35;;;;;;;;;26.00;21.00;;;;;;;;5249630;28;9239;-70
2021/12/11 08:37:08;;;;;;;;;28.67;28.00;;;;;;;;5267475;28;9059;-69
2021/12/11 08:39:58;;;;;;;;;29.67;28.33;;;;;;;;5252541;28;10017;-69
2021/12/11 08:42:31;;;;;;;;;31.00;31.00;;;;;;;;5250175;28;9514;-70
2021/12/11 08:45:06;;;;;;;;;22.67;22.67;;;;;;;;5249648;28;9389;-69
2021/12/11 08:47:58;;;;;;;;;18.33;18.33;;;;;;;;5267296;28;10904;-69
2021/12/11 08:50:30;;;;;;;;;38.33;33.67;;;;;;;;5216332;28;9431;-69
2021/12/11 08:53:01;;;;;;;;;27.67;27.00;;;;;;;;5232728;28;9385;-69
2021/12/11 08:55:36;;;;;;;;;28.00;26.67;;;;;;;;5216496;28;9255;-70
2021/12/11 08:58:08;;;;;;;;;69.25;54.50;;;;;;;;5216065;28;9536;-70
2021/12/11 09:01:06;;;;;;;;;51.75;47.75;;;;;;;;5252189;28;10014;-69
2021/12/11 09:04:10;;;;;;;;;44.33;36.67;;;;;;;;5268031;28;10087;-69
2021/12/11 09:06:47;;;;;;;;;38.33;30.67;;;;;;;;5189705;28;9433;-68
2021/12/11 09:09:40;;;;;;;;;8.33;7.00;;;;;;;;5235156;28;9317;-68
2021/12/11 09:12:21;;;;;;;;;53.75;45.50;;;;;;;;5215809;28;9289;-68
2021/12/11 09:15:05;;;;;;;;;52.00;44.00;;;;;;;;5267465;28;10090;-68
2021/12/11 09:17:41;;;;;;;;;43.67;42.33;;;;;;;;5216278;28;9959;-68
2021/12/11 09:20:17;;;;;;;;;39.25;36.25;;;;;;;;5216017;28;9647;-68
2021/12/11 09:22:53;;;;;;;;;5.75;5.75;;;;;;;;5232429;28;10198;-68
2021/12/11 09:25:29;;;;;;;;;81.50;59.00;;;;;;;;5215464;28;8784;-68
2021/12/11 09:28:08;;;;;;;;;31.33;31.33;;;;;;;;5215796;28;11237;-68
2021/12/11 09:31:16;;;;;;;;;34.33;33.33;;;;;;;;5234909;28;9651;-69
2021/12/11 09:33:54;;;;;;;;;30.33;30.33;;;;;;;;5249628;28;10205;-68
2021/12/11 09:36:30;;;;;;;;;46.25;42.00;;;;;;;;5216028;28;9616;-68
2021/12/11 09:39:22;;;;;;;;;34.00;34.00;;;;;;;;5236216;28;10160;-68
2021/12/11 09:41:52;;;;;;;;;21.67;20.00;;;;;;;;5236710;28;9694;-68
2021/12/11 09:44:33;;;;;;;;;14.00;13.33;;;;;;;;5270845;28;8844;-68
2021/12/11 09:47:12;;;;;;;;;18.00;18.00;;;;;;;;5236825;28;8788;-69
2021/12/11 09:49:45;;;;;;;;;13.00;13.00;;;;;;;;5236591;28;8780;-68
2021/12/11 09:52:23;;;;;;;;;11.67;10.67;;;;;;;;5235724;28;9142;-67
2021/12/11 09:55:20;;;;;;;;;29.33;24.67;;;;;;;;5255732;28;9318;-67
2021/12/11 09:57:54;;;;;;;;;29.33;29.33;;;;;;;;5253004;28;9306;-68
2021/12/11 10:00:24;;;;;;;;;28.33;26.33;;;;;;;;5236259;28;9386;-68
2021/12/11 10:02:56;;;;;;;;;19.67;19.00;;;;;;;;5270526;28;8919;-68
2021/12/11 10:05:55;;;;;;;;;35.00;29.33;;;;;;;;5255781;28;8928;-68
2021/12/11 10:08:56;;;;;;;;;39.50;35.25;;;;;;;;5238598;28;9183;-68
2021/12/11 10:11:30;;;;;;;;;48.50;44.50;;;;;;;;5219373;28;9947;-69
2021/12/11 10:14:06;;;;;;;;;38.75;32.75;;;;;;;;5218537;28;10376;-69
2021/12/11 10:16:40;;;;;;;;;30.00;26.67;;;;;;;;5219505;28;9924;-68
2021/12/11 10:19:12;;;;;;;;;16.25;16.00;;;;;;;;5219256;28;9135;-68
2021/12/11 10:21:49;;;;;;;;;17.25;16.75;;;;;;;;5218816;28;8846;-68
2021/12/11 10:24:23;;;;;;;;;17.50;16.50;;;;;;;;5235689;28;8764;-69
2021/12/11 10:26:56;;;;;;;;;14.25;14.25;;;;;;;;5218825;28;8857;-69
2021/12/11 10:29:27;;;;;;;;;17.75;17.75;;;;;;;;5252313;28;8768;-68
2021/12/11 10:32:18;;;;;;;;;31.33;31.00;;;;;;;;5270153;28;8797;-69
2021/12/11 10:34:51;;;;;;;;;55.75;48.00;;;;;;;;5252194;28;9180;-69
2021/12/11 10:37:40;;;;;;;;;58.50;51.00;;;;;;;;5269978;28;9848;-67
2021/12/11 10:40:22;;;;;;;;;77.25;64.75;;;;;;;;5218414;28;10024;-67
2021/12/11 10:43:14;;;;;;;;;55.75;50.25;;;;;;;;5254561;28;10578;-67
2021/12/11 10:45:46;;;;;;;;;53.67;44.33;;;;;;;;5218519;28;10592;-69
2021/12/11 10:48:21;;;;;;;;;44.33;40.67;;;;;;;;5234881;28;9706;-69
2021/12/11 10:50:55;;;;;;;;;57.00;49.67;;;;;;;;5251546;28;10199;-69
2021/12/11 10:53:27;;;;;;;;;62.00;53.00;;;;;;;;5235031;28;10322;-68
2021/12/11 10:55:59;;;;;;;;;2.50;1.00;;;;;;;;5269885;28;10798;-67
2021/12/11 10:58:32;;;;;;;;;45.67;43.33;;;;;;;;5250845;28;9788;-68
2021/12/11 11:01:10;;;;;;;;;9.67;7.33;;;;;;;;5234413;28;9172;-68
2021/12/11 11:03:45;;;;;;;;;30.67;29.33;;;;;;;;5251559;28;9073;-68
2021/12/11 11:06:16;;;;;;;;;29.67;28.00;;;;;;;;5234606;28;8952;-68
2021/12/11 11:08:48;;;;;;;;;17.00;14.33;;;;;;;;5234479;28;9033;-68
2021/12/11 11:11:27;;;;;;;;;38.00;31.00;;;;;;;;5234567;28;9094;-68
2021/12/11 11:14:00;;;;;;;;;36.67;36.67;;;;;;;;5269061;28;9335;-68
2021/12/11 11:16:32;;;;;;;;;25.00;21.67;;;;;;;;5250899;28;9499;-68
2021/12/11 11:19:03;;;;;;;;;39.33;32.33;;;;;;;;5217753;28;9683;-68
2021/12/11 11:21:39;;;;;;;;;49.00;45.00;;;;;;;;5218122;28;9655;-68
2021/12/11 11:24:32;;;;;;;;;57.00;51.50;;;;;;;;5254144;28;10754;-68
2021/12/11 11:27:03;;;;;;;;;36.67;35.33;;;;;;;;5217491;28;10327;-68
2021/12/11 11:29:53;;;;;;;;;8.67;7.00;;;;;;;;5269234;28;9791;-69
2021/12/11 11:32:31;;;;;;;;;3.25;3.25;;;;;;;;5268844;28;8858;-68
2021/12/11 11:35:06;;;;;;;;;18.50;18.50;;;;;;;;5217388;28;8814;-68
2021/12/11 11:37:37;;;;;;;;;5.50;4.00;;;;;;;;5250966;28;8768;-69
2021/12/11 11:40:11;;;;;;;;;18.75;18.75;;;;;;;;5217054;28;8775;-68
2021/12/11 11:42:42;;;;;;;;;8.00;7.75;;;;;;;;5217789;28;8765;-69
2021/12/11 11:45:13;;;;;;;;;12.67;12.67;;;;;;;;5251283;28;8910;-69
2021/12/11 11:47:45;;;;;;;;;21.67;21.33;;;;;;;;5250329;28;10345;-68
2021/12/11 11:50:43;;;;;;;;;24.67;24.00;;;;;;;;5253338;28;11156;-68
2021/12/11 11:53:13;;;;;;;;;36.67;34.67;;;;;;;;5216989;28;8851;-68
2021/12/11 11:55:46;;;;;;;;;26.67;22.67;;;;;;;;5234111;28;9174;-68
2021/12/11 11:58:18;;;;;;;;;56.33;48.33;;;;;;;;5217623;28;9471;-68
2021/12/11 12:01:11;;;;;;;;;45.00;42.67;;;;;;;;5268370;28;9307;-68
2021/12/11 12:03:42;;;;;;;;;64.33;50.00;;;;;;;;5201417;28;10029;-68
2021/12/11 12:06:21;;;;;;;;;66.50;56.50;;;;;;;;5268065;28;9815;-68
2021/12/11 12:08:53;;;;;;;;;59.00;50.25;;;;;;;;5216866;28;8764;-69
2021/12/11 12:11:26;;;;;;;;;55.25;40.00;;;;;;;;5233731;28;10088;-68
2021/12/11 12:13:57;;;;;;;;;37.50;30.75;;;;;;;;5267868;28;9822;-68
2021/12/11 12:16:29;;;;;;;;;74.25;57.75;;;;;;;;5233325;28;9959;-67
2021/12/11 12:19:02;;;;;;;;;67.50;57.75;;;;;;;;5216742;28;10165;-68
2021/12/11 12:21:35;;;;;;;;;51.00;45.50;;;;;;;;5267666;28;10264;-67
2021/12/11 12:24:06;;;;;;;;;65.75;56.25;;;;;;;;5217172;28;10109;-68
2021/12/11 12:26:37;;;;;;;;;85.00;64.00;;;;;;;;5267435;28;10125;-67
2021/12/11 12:29:10;;;;;;;;;79.50;56.75;;;;;;;;5249628;28;10768;-68
2021/12/11 12:31:51;;;;;;;;;84.75;65.00;;;;;;;;5215998;28;11164;-68
2021/12/11 12:34:22;;;;;;;;;75.50;61.00;;;;;;;;5249953;28;10660;-68
2021/12/11 12:36:54;;;;;;;;;94.25;73.25;;;;;;;;5216249;28;10433;-67
2021/12/11 12:39:26;;;;;;;;;105.75;75.00;;;;;;;;5216931;28;11432;-67
2021/12/11 12:42:04;;;;;;;;;101.25;75.25;;;;;;;;5267508;28;11474;-67
2021/12/11 12:44:35;;;;;;;;;106.25;79.00;;;;;;;;5268164;28;12063;-68
2021/12/11 12:47:11;;;;;;;;;116.00;100.75;;;;;;;;5267111;28;11500;-67
2021/12/11 12:49:46;;;;;;;;;126.75;103.50;;;;;;;;5267754;28;8776;-68
2021/12/11 12:52:23;;;;;;;;;117.00;91.00;;;;;;;;5267935;28;12197;-67
2021/12/11 12:54:54;;;;;;;;;110.25;92.25;;;;;;;;5232703;28;11456;-67
2021/12/11 12:57:31;;;;;;;;;188.25;143.50;;;;;;;;5249579;28;12166;-67
2021/12/11 13:00:11;;;;;;;;;170.00;142.67;;;;;;;;5249414;28;8765;-67
2021/12/11 13:02:44;;;;;;;;;188.67;145.33;;;;;;;;5232868;28;8785;-67
2021/12/11 13:05:20;;;;;;;;;162.33;139.67;;;;;;;;5232753;28;8772;-68
2021/12/11 13:07:56;;;;;;;;;180.00;143.67;;;;;;;;5232473;28;8807;-68
2021/12/11 13:10:38;;;;;;;;;231.00;175.00;;;;;;;;5249882;28;8777;-67
2021/12/11 13:13:10;;;;;;;;;213.67;159.00;;;;;;;;5271909;28;8856;-68
2021/12/11 13:15:46;;;;;;;;;235.50;189.50;;;;;;;;5239443;28;8829;-68
2021/12/11 13:18:19;;;;;;;;;209.67;160.00;;;;;;;;5222749;28;8745;-67
2021/12/11 13:20:53;;;;;;;;;212.67;152.00;;;;;;;;5255831;28;8783;-67
2021/12/11 13:23:24;;;;;;;;;238.75;166.25;;;;;;;;5222722;28;8939;-67
2021/12/11 13:25:59;;;;;;;;;242.33;169.33;;;;;;;;5256285;28;8902;-67
2021/12/11 13:28:33;;;;;;;;;172.00;153.67;;;;;;;;5274294;28;8838;-67
2021/12/11 13:31:10;;;;;;;;;220.67;171.67;;;;;;;;5238850;28;8756;-67
2021/12/11 13:33:41;;;;;;;;;204.00;153.67;;;;;;;;5274145;28;8819;-66
2021/12/11 13:36:13;;;;;;;;;170.33;109.67;;;;;;;;5222036;28;8902;-67
2021/12/11 13:43:10;;;;;;;;;170.75;130.50;;;;;;;;5252468;28;8732;-67
2021/12/11 13:45:42;;;;;;;;;123.50;94.25;;;;;;;;5201671;28;12335;-67
2021/12/11 13:48:15;;;;;;;;;117.75;92.00;;;;;;;;5234565;28;11595;-68
2021/12/11 13:50:54;;;;;;;;;129.25;106.75;;;;;;;;5219146;28;11549;-68
2021/12/11 13:53:25;;;;;;;;;114.75;95.00;;;;;;;;5234796;28;11670;-68
2021/12/11 13:55:58;;;;;;;;;112.75;85.00;;;;;;;;5253471;28;11562;-68
2021/12/11 13:58:29;;;;;;;;;117.75;89.75;;;;;;;;5234669;28;11529;-68
2021/12/11 14:01:22;;;;;;;;;113.00;86.25;;;;;;;;5252484;28;11682;-68
2021/12/11 14:03:54;;;;;;;;;147.75;107.50;;;;;;;;5268268;28;11527;-68
2021/12/11 14:06:28;;;;;;;;;111.67;69.00;;;;;;;;5251611;28;12230;-68
2021/12/11 14:09:06;;;;;;;;;135.50;105.75;;;;;;;;5218426;28;8777;-67
2021/12/11 14:11:38;;;;;;;;;96.00;74.50;;;;;;;;5251244;28;11544;-68
2021/12/11 14:14:11;;;;;;;;;90.75;69.00;;;;;;;;5217421;28;11677;-67
2021/12/11 14:16:42;;;;;;;;;41.75;40.25;;;;;;;;5251655;28;12291;-68
2021/12/11 14:19:31;;;;;;;;;61.00;46.50;;;;;;;;5253025;28;10284;-68
2021/12/11 14:22:03;;;;;;;;;72.50;59.75;;;;;;;;5268779;28;10840;-68
2021/12/11 14:24:37;;;;;;;;;68.75;58.00;;;;;;;;5198583;28;11535;-68
2021/12/11 14:27:13;;;;;;;;;59.75;49.50;;;;;;;;5264351;28;11202;-68
2021/12/11 14:29:46;;;;;;;;;70.75;49.25;;;;;;;;5231589;28;10767;-68
2021/12/11 14:32:18;;;;;;;;;68.25;53.75;;;;;;;;5231185;28;10321;-67
2021/12/11 14:34:50;;;;;;;;;58.25;49.75;;;;;;;;5247707;28;10508;-67
2021/12/11 14:37:21;;;;;;;;;58.25;48.00;;;;;;;;5214007;28;10461;-67
2021/12/11 14:39:51;;;;;;;;;60.67;48.67;;;;;;;;5248744;28;9828;-68
2021/12/11 14:42:24;;;;;;;;;34.33;33.67;;;;;;;;5214623;28;8796;-67
2021/12/11 14:44:59;;;;;;;;;50.67;47.00;;;;;;;;5230996;28;9556;-67
2021/12/11 14:47:29;;;;;;;;;48.67;47.33;;;;;;;;5264197;28;9523;-67
2021/12/11 14:50:01;;;;;;;;;44.33;40.00;;;;;;;;5249245;28;9590;-68
2021/12/11 14:52:32;;;;;;;;;47.67;40.00;;;;;;;;5248731;28;8820;-68
2021/12/11 14:55:07;;;;;;;;;33.33;31.33;;;;;;;;5248808;28;9779;-67
2021/12/11 14:57:38;;;;;;;;;40.67;40.67;;;;;;;;5230739;28;9491;-67
2021/12/11 15:00:12;;;;;;;;;78.25;62.00;;;;;;;;5230607;28;9580;-67
2021/12/11 15:02:43;;;;;;;;;50.75;46.25;;;;;;;;5197584;28;10709;-68
2021/12/11 15:05:16;;;;;;;;;44.00;41.33;;;;;;;;5214347;28;10529;-67
2021/12/11 15:07:48;;;;;;;;;40.67;37.67;;;;;;;;5230828;28;9922;-67
2021/12/11 15:10:24;;;;;;;;;40.33;37.67;;;;;;;;5230559;28;8960;-67
2021/12/11 15:12:56;;;;;;;;;36.67;33.00;;;;;;;;5263562;28;8982;-67
2021/12/11 15:15:27;;;;;;;;;87.00;65.50;;;;;;;;5263930;28;10069;-67
2021/12/11 15:17:58;;;;;;;;;86.00;67.75;;;;;;;;5248325;28;10795;-67
2021/12/11 15:20:50;;;;;;;;;82.75;67.00;;;;;;;;5263380;28;11529;-67
2021/12/11 15:23:21;;;;;;;;;71.50;58.50;;;;;;;;5247902;28;11444;-67
2021/12/11 15:30:38;;;;;;;;;75.25;60.25;;;;;;;;5248088;28;9408;-66
2021/12/11 15:33:09;;;;;;;;;13.67;10.00;;;;;;;;5217427;28;10481;-65
2021/12/11 15:36:00;;;;;;;;;18.50;18.50;;;;;;;;5252201;28;9111;-66
2021/12/11 15:38:31;;;;;;;;;9.75;9.75;;;;;;;;5234008;28;9558;-67
2021/12/11 15:45:25;;;;;;;;;16.75;16.75;;;;;;;;5288067;28;8717;-70
2021/12/11 15:52:19;;;;;;;;;25.50;21.25;;;;;;;;5289651;28;8713;-67
2021/12/11 15:54:51;;;;;;;;;25.00;23.67;;;;;;;;5272045;28;8804;-68
2021/12/11 15:57:22;;;;;;;;;8.00;8.00;;;;;;;;5238213;28;8800;-67
2021/12/11 15:59:53;;;;;;;;;14.25;13.50;;;;;;;;5271782;28;8833;-69
2021/12/11 16:02:25;;;;;;;;;9.50;9.50;;;;;;;;5271714;28;8783;-69
2021/12/11 16:04:57;;;;;;;;;9.00;8.75;;;;;;;;5254171;28;8906;-69
2021/12/11 16:12:01;;;;;;;;;11.25;10.00;;;;;;;;5289078;28;8732;-66
2021/12/11 16:14:32;;;;;;;;;9.25;8.00;;;;;;;;5237429;28;8847;-67
2021/12/11 16:17:04;;;;;;;;;20.33;19.00;;;;;;;;5270987;28;9439;-67
2021/12/11 16:19:36;;;;;;;;;9.25;9.25;;;;;;;;5271361;28;8757;-67
2021/12/11 16:22:20;;;;;;;;;17.00;17.00;;;;;;;;5289544;28;8891;-67
2021/12/11 16:24:53;;;;;;;;;13.50;13.00;;;;;;;;5270314;28;8764;-67
2021/12/11 16:27:24;;;;;;;;;27.00;26.50;;;;;;;;5253941;28;8870;-67
2021/12/11 16:29:55;;;;;;;;;19.00;19.00;;;;;;;;5237324;28;8801;-67
2021/12/11 16:32:26;;;;;;;;;19.00;19.00;;;;;;;;5288832;28;8954;-67